Stockbridge, Michigan
Current Conditions -  °F | °C
As of 5:14 AM on Saturday 20 Dec 2014 (Local Time) from KTEW Reporting Station
Overcast Overcast  
Wind Chill: 24°   Ceiling: 2200
Heat Index: 24°   Visibility: 7mi
Dew Point: 21°   Wind: 0mph
Humidity: 91%   Direction: NA
Pressure: 30.27"   Gusts: NA
Location:  42.45°N, 84.18°W
Report Text: KTEW 201014Z AUTO 00000KT 7SM OVC022 M05/M06 A3027 RMK AO2 T10471059
Loading
Personal Weather Stations






























Interactive Weather Map New forecast layout! Learn more

10-Day Weather Forecast

Advertisements
Track Severe Weather on mobile